Time;durP1;ratioP1;P1;durP2;ratioP2;P2;SDS_P1;SDS_P2;PMS_P1;PMS_P2;Temp;Humidity;BMP_temperature;BMP_pressure;BME280_temperature;BME280_humidity;BME280_pressure;Samples;Min_cycle;Max_cycle;Signal;HPM_P1;HPM_P2
2023/08/10 00:00:09;;;;;;;3.20;2.47;;;14.90;99.90;;;;;;6164167;23;20174;-68
2023/08/10 00:02:35;;;;;;;7.53;2.20;;;14.90;99.90;;;;;;6191160;23;20127;-68
2023/08/10 00:05:00;;;;;;;3.43;2.77;;;14.90;99.90;;;;;;6165961;23;20778;-68
2023/08/10 00:07:26;;;;;;;5.83;2.30;;;14.90;99.90;;;;;;6191848;23;20135;-68
2023/08/10 00:09:51;;;;;;;3.33;2.50;;;14.80;99.90;;;;;;6191077;23;20221;-68
2023/08/10 00:12:17;;;;;;;2.30;2.00;;;14.80;99.90;;;;;;6165298;23;20170;-67
2023/08/10 00:14:42;;;;;;;3.10;2.10;;;14.80;99.90;;;;;;6191162;23;20134;-67
2023/08/10 00:17:08;;;;;;;3.03;2.40;;;14.70;99.90;;;;;;6193176;23;20170;-68
2023/08/10 00:19:33;;;;;;;2.57;2.37;;;14.60;99.90;;;;;;6166029;23;20185;-67
2023/08/10 00:21:59;;;;;;;3.53;1.90;;;14.60;99.90;;;;;;6192000;23;20131;-66
2023/08/10 00:24:25;;;;;;;4.43;2.57;;;14.50;99.90;;;;;;6191495;23;20539;-67
2023/08/10 00:26:50;;;;;;;3.37;2.50;;;14.40;99.90;;;;;;6194581;23;20143;-67
2023/08/10 00:29:16;;;;;;;4.63;2.57;;;14.40;99.90;;;;;;6166164;23;20146;-67
2023/08/10 00:31:43;;;;;;;3.30;2.30;;;14.30;99.90;;;;;;6166645;23;20157;-66
2023/08/10 00:34:08;;;;;;;5.77;3.07;;;14.30;99.90;;;;;;6191749;23;20440;-67
2023/08/10 00:36:36;;;;;;;3.03;2.20;;;14.20;99.90;;;;;;6165249;23;20405;-67
2023/08/10 00:39:02;;;;;;;3.40;2.13;;;14.20;99.90;;;;;;6164191;23;20496;-66
2023/08/10 00:41:28;;;;;;;2.23;1.90;;;14.20;99.90;;;;;;6189969;23;20386;-67
2023/08/10 00:43:54;;;;;;;3.40;2.40;;;14.20;99.90;;;;;;6141115;23;20408;-67
2023/08/10 00:46:20;;;;;;;6.07;2.70;;;14.30;99.90;;;;;;6165021;23;20441;-68
2023/08/10 00:48:46;;;;;;;5.13;2.67;;;14.40;99.90;;;;;;6164877;23;20142;-66
2023/08/10 00:51:12;;;;;;;4.33;2.20;;;14.40;99.90;;;;;;6191904;23;20663;-66
2023/08/10 00:53:39;;;;;;;2.77;2.10;;;14.50;99.90;;;;;;6191581;23;20489;-67
2023/08/10 00:56:05;;;;;;;3.90;2.70;;;14.60;99.90;;;;;;6165982;23;20150;-66
2023/08/10 00:58:32;;;;;;;3.40;2.40;;;14.70;99.90;;;;;;6195364;23;20362;-67
2023/08/10 01:00:58;;;;;;;3.50;1.90;;;14.70;99.90;;;;;;6199821;23;20703;-67
2023/08/10 01:03:23;;;;;;;3.50;2.80;;;14.80;99.90;;;;;;6143049;23;20398;-66
2023/08/10 01:06:05;;;;;;;3.20;2.30;;;14.90;99.90;;;;;;6166248;23;20180;-68
2023/08/10 01:08:39;;;;;;;3.00;2.10;;;14.90;99.90;;;;;;6166493;23;20154;-67
2023/08/10 01:11:26;;;;;;;5.10;2.30;;;14.90;99.90;;;;;;6166034;23;20894;-67
2023/08/10 01:13:58;;;;;;;3.77;2.60;;;14.90;99.90;;;;;;6193047;23;20836;-68
2023/08/10 01:16:26;;;;;;;5.93;2.50;;;15.00;99.90;;;;;;6192582;23;20362;-66
2023/08/10 01:18:53;;;;;;;4.00;2.87;;;15.00;99.90;;;;;;6191613;23;20362;-67
2023/08/10 01:21:25;;;;;;;3.53;2.13;;;15.00;99.90;;;;;;6166079;23;20400;-67
2023/08/10 01:23:54;;;;;;;2.97;2.37;;;15.00;99.90;;;;;;6166057;23;20388;-65
2023/08/10 01:26:21;;;;;;;7.20;2.70;;;15.00;99.90;;;;;;6166071;23;20460;-68
2023/08/10 01:28:47;;;;;;;3.83;2.23;;;15.00;99.90;;;;;;6191428;23;20370;-67
2023/08/10 01:31:13;;;;;;;3.57;2.90;;;14.90;99.90;;;;;;6192397;23;20396;-67
2023/08/10 01:33:39;;;;;;;2.60;2.27;;;14.90;99.90;;;;;;6193701;23;20174;-67
2023/08/10 01:36:05;;;;;;;4.13;2.03;;;14.90;99.90;;;;;;6193373;23;20354;-67
2023/08/10 01:38:30;;;;;;;4.10;2.10;;;14.80;99.90;;;;;;6191437;23;20158;-67
2023/08/10 01:40:56;;;;;;;5.30;2.23;;;14.70;99.90;;;;;;6191292;23;20183;-67
2023/08/10 01:43:21;;;;;;;4.80;2.00;;;14.70;99.90;;;;;;6191506;23;20138;-68
2023/08/10 01:45:51;;;;;;;4.20;2.27;;;14.70;99.90;;;;;;6191165;23;20193;-68
2023/08/10 01:48:25;;;;;;;2.97;2.20;;;14.60;99.90;;;;;;6191936;23;20141;-67
2023/08/10 01:50:53;;;;;;;4.50;2.20;;;14.70;99.90;;;;;;6164930;23;20773;-67
2023/08/10 01:53:28;;;;;;;3.00;1.90;;;14.70;99.90;;;;;;6168000;23;20384;-67
2023/08/10 01:55:54;;;;;;;2.40;1.67;;;14.70;99.90;;;;;;6191360;23;20368;-67
2023/08/10 01:58:19;;;;;;;1.90;1.50;;;14.70;99.90;;;;;;6165014;23;20410;-68
2023/08/10 02:00:45;;;;;;;4.93;1.60;;;14.80;99.90;;;;;;6192031;23;20722;-67
2023/08/10 02:03:11;;;;;;;3.40;2.00;;;14.80;99.90;;;;;;6165437;23;20185;-67
2023/08/10 02:05:37;;;;;;;3.90;2.00;;;14.80;99.90;;;;;;6192514;23;20248;-67
2023/08/10 02:08:03;;;;;;;3.07;2.27;;;14.80;99.90;;;;;;6165122;23;20390;-66
2023/08/10 02:10:28;;;;;;;3.00;1.93;;;14.90;99.90;;;;;;6190900;23;20471;-67
2023/08/10 02:12:54;;;;;;;2.40;1.70;;;14.80;99.90;;;;;;6191114;23;20143;-68
2023/08/10 02:15:20;;;;;;;3.20;2.30;;;14.80;99.90;;;;;;6164719;23;20338;-68
2023/08/10 02:17:45;;;;;;;4.00;2.43;;;14.80;99.90;;;;;;6191849;23;20173;-67
2023/08/10 02:20:14;;;;;;;4.63;2.60;;;14.80;99.90;;;;;;6191516;23;20189;-67
2023/08/10 02:22:42;;;;;;;2.40;2.13;;;14.80;99.90;;;;;;6191350;23;20139;-67
2023/08/10 02:25:09;;;;;;;7.13;2.23;;;14.80;99.90;;;;;;6191444;23;20347;-67
2023/08/10 02:27:35;;;;;;;4.23;2.17;;;14.70;99.90;;;;;;6191660;23;20373;-67
2023/08/10 02:30:00;;;;;;;4.33;2.00;;;14.60;99.90;;;;;;6190227;23;20722;-67
2023/08/10 02:32:26;;;;;;;4.17;2.53;;;14.60;99.90;;;;;;6190190;23;20361;-67
2023/08/10 02:34:51;;;;;;;4.37;2.77;;;14.50;99.90;;;;;;6139431;23;20163;-67
2023/08/10 02:37:17;;;;;;;3.33;2.50;;;14.40;99.90;;;;;;6165118;23;20240;-66
2023/08/10 02:39:43;;;;;;;6.00;2.53;;;14.30;99.90;;;;;;6190375;23;20169;-67
2023/08/10 02:42:09;;;;;;;4.20;2.50;;;14.20;99.90;;;;;;6164138;23;20528;-66
2023/08/10 02:44:35;;;;;;;4.00;2.17;;;14.20;99.90;;;;;;6191486;23;20139;-69
2023/08/10 02:47:02;;;;;;;5.80;2.30;;;14.10;99.90;;;;;;6164308;23;20675;-67
2023/08/10 02:49:27;;;;;;;2.70;2.13;;;14.10;99.90;;;;;;6190440;23;20143;-67
2023/08/10 02:51:54;;;;;;;2.73;1.80;;;14.00;99.90;;;;;;6164728;23;20465;-67
2023/08/10 02:54:19;;;;;;;4.27;2.13;;;13.90;99.90;;;;;;6192102;23;20365;-69
2023/08/10 02:56:45;;;;;;;2.63;2.10;;;13.90;99.90;;;;;;6164752;23;20205;-66
2023/08/10 02:59:10;;;;;;;4.63;2.80;;;13.80;99.90;;;;;;6190707;23;20134;-67
2023/08/10 03:01:37;;;;;;;4.70;2.60;;;13.80;99.90;;;;;;6190523;23;20135;-66
2023/08/10 03:04:03;;;;;;;3.00;1.67;;;13.70;99.90;;;;;;6192109;23;20181;-66
2023/08/10 03:06:29;;;;;;;2.73;2.00;;;13.70;99.90;;;;;;6191186;23;20362;-68
2023/08/10 03:08:55;;;;;;;3.30;2.97;;;13.60;99.90;;;;;;6164741;23;20138;-68
2023/08/10 03:11:21;;;;;;;3.20;2.63;;;13.60;99.90;;;;;;6164397;23;20408;-66
2023/08/10 03:13:47;;;;;;;3.60;2.87;;;13.60;99.90;;;;;;6165244;23;20149;-66
2023/08/10 03:16:13;;;;;;;2.70;2.20;;;13.50;99.90;;;;;;6165759;23;20151;-67
2023/08/10 03:18:39;;;;;;;3.33;2.43;;;13.50;99.90;;;;;;6164278;23;20377;-67
2023/08/10 03:21:05;;;;;;;3.37;2.57;;;13.50;99.90;;;;;;6164522;23;20169;-67
2023/08/10 03:23:31;;;;;;;2.37;1.70;;;13.50;99.90;;;;;;6190858;23;20401;-67
2023/08/10 03:25:56;;;;;;;1.87;1.67;;;13.40;99.90;;;;;;6165370;23;20412;-67
2023/08/10 03:28:22;;;;;;;4.00;2.17;;;13.40;99.90;;;;;;6191823;23;20432;-67
2023/08/10 03:30:49;;;;;;;3.63;2.30;;;13.30;99.90;;;;;;6164987;23;20170;-68
2023/08/10 03:33:15;;;;;;;3.50;2.53;;;13.30;99.90;;;;;;6190102;23;20448;-67
2023/08/10 03:35:43;;;;;;;5.10;2.10;;;13.20;99.90;;;;;;6164539;23;20150;-67
2023/08/10 03:38:09;;;;;;;2.47;1.80;;;13.20;99.90;;;;;;6164568;23;20409;-67
2023/08/10 03:40:35;;;;;;;2.63;1.97;;;13.20;99.90;;;;;;6193536;23;20154;-67
2023/08/10 03:43:01;;;;;;;5.67;2.77;;;13.10;99.90;;;;;;6195710;23;20420;-66
2023/08/10 03:45:26;;;;;;;4.70;3.17;;;13.10;99.90;;;;;;6164764;23;20269;-66
2023/08/10 03:47:52;;;;;;;3.83;2.40;;;13.10;99.90;;;;;;6164127;23;20181;-67
2023/08/10 03:50:18;;;;;;;3.40;2.03;;;13.00;99.90;;;;;;6163266;23;20174;-66
2023/08/10 03:52:43;;;;;;;3.03;1.70;;;13.00;99.90;;;;;;6190416;23;20142;-67
2023/08/10 03:55:10;;;;;;;2.30;2.00;;;13.00;99.90;;;;;;6190715;23;20404;-67
2023/08/10 03:57:36;;;;;;;2.73;1.70;;;12.90;99.90;;;;;;6164327;23;20416;-67
2023/08/10 04:00:01;;;;;;;2.40;1.70;;;12.90;99.90;;;;;;6192301;23;20470;-67
2023/08/10 04:02:28;;;;;;;1.87;1.30;;;13.00;99.90;;;;;;6165305;23;20398;-67
2023/08/10 04:04:54;;;;;;;2.37;1.93;;;12.90;99.90;;;;;;6163796;23;20436;-67
2023/08/10 04:07:20;;;;;;;2.57;1.83;;;12.90;99.90;;;;;;6165642;23;20153;-67
2023/08/10 04:09:47;;;;;;;3.23;2.40;;;13.00;99.90;;;;;;6189891;23;20169;-66
2023/08/10 04:12:14;;;;;;;3.07;2.17;;;13.10;99.90;;;;;;6189790;23;20139;-67
2023/08/10 04:14:40;;;;;;;2.70;2.17;;;13.20;99.90;;;;;;6191877;23;20409;-66
2023/08/10 04:17:05;;;;;;;4.83;2.40;;;13.30;99.90;;;;;;6165528;23;20433;-66
2023/08/10 04:19:31;;;;;;;3.70;2.37;;;13.40;99.90;;;;;;6164982;23;20166;-66
2023/08/10 04:21:57;;;;;;;4.57;3.20;;;13.40;99.90;;;;;;6163963;23;20198;-67
2023/08/10 04:24:23;;;;;;;3.47;2.30;;;13.50;99.90;;;;;;6164334;23;20150;-68
2023/08/10 04:26:48;;;;;;;5.63;2.20;;;13.50;99.90;;;;;;6191261;23;20210;-67
2023/08/10 04:29:14;;;;;;;4.33;2.40;;;13.50;99.90;;;;;;6190965;23;20404;-68
2023/08/10 04:31:42;;;;;;;2.70;2.03;;;13.50;99.90;;;;;;6192946;23;20134;-67
2023/08/10 04:34:08;;;;;;;2.40;1.97;;;13.60;99.90;;;;;;6193249;23;20401;-68
2023/08/10 04:36:34;;;;;;;3.73;2.03;;;13.70;99.90;;;;;;6194906;23;20412;-69
2023/08/10 04:39:00;;;;;;;3.73;2.20;;;13.70;99.90;;;;;;6168814;23;20131;-68
2023/08/10 04:41:25;;;;;;;2.70;2.30;;;13.80;99.90;;;;;;6197506;23;20248;-66
2023/08/10 04:43:51;;;;;;;4.53;3.63;;;13.80;99.90;;;;;;6195425;23;20361;-69
2023/08/10 04:46:17;;;;;;;4.70;2.13;;;13.90;99.90;;;;;;6170443;23;20135;-67
2023/08/10 04:48:42;;;;;;;6.57;2.90;;;14.00;99.90;;;;;;6195815;23;20455;-68
2023/08/10 04:51:08;;;;;;;3.40;2.80;;;14.00;99.90;;;;;;6167527;23;20166;-66
2023/08/10 04:53:34;;;;;;;4.20;2.87;;;14.10;99.90;;;;;;6193049;23;20216;-66
2023/08/10 04:55:59;;;;;;;6.60;3.47;;;14.20;99.90;;;;;;6194014;23;20130;-69
2023/08/10 04:58:25;;;;;;;3.60;2.50;;;14.30;99.90;;;;;;6192425;23;20155;-67
2023/08/10 05:00:54;;;;;;;4.30;2.93;;;14.30;99.90;;;;;;6194768;23;20169;-67
2023/08/10 05:03:22;;;;;;;7.27;3.17;;;14.40;99.90;;;;;;6194388;23;20469;-68
2023/08/10 05:05:50;;;;;;;4.63;2.70;;;14.50;99.90;;;;;;6143096;23;20420;-67
2023/08/10 05:08:16;;;;;;;3.87;2.57;;;14.50;99.90;;;;;;6193135;23;20452;-69
2023/08/10 05:10:44;;;;;;;3.70;2.40;;;14.60;99.90;;;;;;6193906;23;20404;-69
2023/08/10 05:13:10;;;;;;;5.50;3.10;;;14.60;99.90;;;;;;6195154;23;20373;-69
2023/08/10 05:15:36;;;;;;;3.80;2.50;;;14.70;99.90;;;;;;6169057;23;20794;-68
2023/08/10 05:18:02;;;;;;;6.33;4.40;;;14.80;99.90;;;;;;6195041;23;20163;-69
2023/08/10 05:20:28;;;;;;;4.83;3.27;;;14.80;99.90;;;;;;6194704;23;20162;-68
2023/08/10 05:22:54;;;;;;;5.50;3.33;;;14.90;99.90;;;;;;6197065;23;20365;-68
2023/08/10 05:25:20;;;;;;;4.83;3.40;;;15.00;99.90;;;;;;6171028;23;20141;-69
2023/08/10 05:27:46;;;;;;;5.00;2.80;;;15.10;99.90;;;;;;6173133;23;20390;-66
2023/08/10 05:30:12;;;;;;;7.07;3.63;;;15.20;99.90;;;;;;6196727;23;20241;-69
2023/08/10 05:32:39;;;;;;;5.87;3.70;;;15.20;99.90;;;;;;6200389;23;20142;-71
2023/08/10 05:35:07;;;;;;;6.57;2.70;;;15.30;99.90;;;;;;6197859;23;20166;-69
2023/08/10 05:37:34;;;;;;;4.80;2.90;;;15.50;99.90;;;;;;6169719;23;20668;-69
2023/08/10 05:40:00;;;;;;;6.03;3.73;;;15.60;99.90;;;;;;6196344;23;20396;-70
2023/08/10 05:42:26;;;;;;;3.27;2.80;;;15.70;99.90;;;;;;6196933;23;20434;-71
2023/08/10 05:44:52;;;;;;;8.87;3.37;;;15.80;99.90;;;;;;6197681;23;20445;-70
2023/08/10 05:47:18;;;;;;;7.17;2.80;;;15.80;99.90;;;;;;6199126;23;20193;-69
2023/08/10 05:49:43;;;;;;;3.90;3.03;;;15.90;99.90;;;;;;6197066;23;20217;-69
2023/08/10 05:52:09;;;;;;;6.03;3.13;;;15.80;99.90;;;;;;6196085;23;20212;-69
2023/08/10 05:54:34;;;;;;;7.40;3.73;;;15.80;99.90;;;;;;6196720;23;20161;-69
2023/08/10 05:57:01;;;;;;;7.00;3.40;;;15.70;99.90;;;;;;6197696;23;20163;-69
2023/08/10 05:59:26;;;;;;;5.33;2.80;;;15.70;99.90;;;;;;6171761;23;20208;-68
2023/08/10 06:01:53;;;;;;;5.03;3.10;;;16.00;99.90;;;;;;6198296;23;20397;-68
2023/08/10 06:04:18;;;;;;;4.87;3.10;;;16.60;99.90;;;;;;6198075;23;20205;-67
2023/08/10 06:06:46;;;;;;;5.00;3.40;;;17.10;97.80;;;;;;6202729;23;20363;-69
2023/08/10 06:09:11;;;;;;;4.53;3.00;;;17.60;93.60;;;;;;6175083;23;20147;-69
2023/08/10 06:11:37;;;;;;;5.80;3.20;;;17.80;90.30;;;;;;6199638;23;20370;-69
2023/08/10 06:14:03;;;;;;;6.10;2.63;;;17.80;85.80;;;;;;6198291;23;20145;-70
2023/08/10 06:16:29;;;;;;;4.63;2.73;;;17.70;85.90;;;;;;6198861;23;20158;-69
2023/08/10 06:18:55;;;;;;;4.90;2.60;;;17.70;85.50;;;;;;6197119;23;20835;-69
2023/08/10 06:21:21;;;;;;;3.50;2.23;;;17.60;84.90;;;;;;6169648;23;20493;-70
2023/08/10 06:23:46;;;;;;;5.13;2.90;;;17.40;85.30;;;;;;6196180;23;20211;-69
2023/08/10 06:26:12;;;;;;;4.73;3.23;;;17.10;86.50;;;;;;6195986;23;20136;-68
2023/08/10 06:28:38;;;;;;;4.93;3.30;;;16.80;87.50;;;;;;6170410;23;20407;-71
2023/08/10 06:31:09;;;;;;;4.23;2.67;;;16.70;90.50;;;;;;6197981;23;20747;-68
2023/08/10 06:33:35;;;;;;;7.63;2.87;;;16.50;91.40;;;;;;6199710;23;20385;-70
2023/08/10 06:36:01;;;;;;;5.57;2.77;;;16.50;92.30;;;;;;6195388;23;20432;-70
2023/08/10 06:38:27;;;;;;;4.60;3.20;;;16.40;92.60;;;;;;6171327;23;20479;-67
2023/08/10 06:40:54;;;;;;;5.33;3.00;;;16.40;92.90;;;;;;6199529;23;20196;-69
2023/08/10 06:43:19;;;;;;;8.23;3.50;;;16.30;93.40;;;;;;6203422;23;20133;-69
2023/08/10 06:45:51;;;;;;;4.50;2.30;;;16.40;93.80;;;;;;6174048;23;20723;-71
2023/08/10 06:48:17;;;;;;;3.70;2.80;;;16.40;94.00;;;;;;6201325;23;20367;-69
2023/08/10 06:50:43;;;;;;;4.60;2.83;;;16.50;93.90;;;;;;6197427;23;20620;-69
2023/08/10 06:53:09;;;;;;;6.63;3.80;;;16.60;94.10;;;;;;6170639;23;20139;-71
2023/08/10 06:55:35;;;;;;;9.47;3.37;;;16.70;93.60;;;;;;6174761;23;20400;-71
2023/08/10 06:58:02;;;;;;;8.27;2.77;;;16.80;91.80;;;;;;6202492;23;20489;-70
2023/08/10 07:00:28;;;;;;;7.33;3.23;;;16.90;91.20;;;;;;6175444;23;20164;-70
2023/08/10 07:02:56;;;;;;;13.93;4.50;;;17.00;90.10;;;;;;6174970;23;20458;-70
2023/08/10 07:05:26;;;;;;;5.47;2.27;;;17.30;88.40;;;;;;6174498;23;20199;-71
2023/08/10 07:07:52;;;;;;;6.10;3.00;;;17.60;84.60;;;;;;6155299;23;20648;-72
2023/08/10 07:10:18;;;;;;;3.80;2.17;;;17.90;81.50;;;;;;6176762;23;20407;-69
2023/08/10 07:12:44;;;;;;;2.93;1.53;;;18.10;79.10;;;;;;6155026;23;20389;-71
2023/08/10 07:15:10;;;;;;;2.73;1.90;;;18.30;77.60;;;;;;6180684;23;20396;-69
2023/08/10 07:17:41;;;;;;;4.57;2.20;;;18.20;76.50;;;;;;6181342;23;20225;-70
2023/08/10 07:20:08;;;;;;;3.43;2.40;;;18.10;75.90;;;;;;6203586;23;20241;-71
2023/08/10 07:22:35;;;;;;;5.57;4.10;;;17.90;76.40;;;;;;6204165;23;20374;-72
2023/08/10 07:25:06;;;;;;;3.87;2.53;;;17.70;76.80;;;;;;6182269;23;20448;-72
2023/08/10 07:27:33;;;;;;;2.30;1.70;;;17.50;78.10;;;;;;6176376;23;20488;-68
2023/08/10 07:29:59;;;;;;;5.60;1.90;;;17.40;77.30;;;;;;6174975;23;20418;-68
2023/08/10 07:32:27;;;;;;;3.23;1.70;;;17.30;74.70;;;;;;6204054;23;20369;-69
2023/08/10 07:34:55;;;;;;;5.03;2.30;;;17.30;75.70;;;;;;6198299;23;20376;-70
2023/08/10 07:37:21;;;;;;;3.93;1.60;;;17.30;73.00;;;;;;6148000;23;20423;-68
2023/08/10 07:39:47;;;;;;;5.10;1.70;;;17.30;70.40;;;;;;6197588;23;20401;-69
2023/08/10 07:42:15;;;;;;;2.50;1.73;;;17.20;71.20;;;;;;6196616;23;20134;-70
2023/08/10 07:44:40;;;;;;;3.63;2.00;;;17.30;72.50;;;;;;6196546;23;20402;-71
2023/08/10 07:47:06;;;;;;;3.03;2.20;;;17.40;72.60;;;;;;6199492;23;20142;-69
2023/08/10 07:49:32;;;;;;;3.40;2.83;;;17.40;69.80;;;;;;6174184;23;20189;-70
2023/08/10 07:51:58;;;;;;;3.43;1.90;;;17.50;70.50;;;;;;6198021;23;20160;-69
2023/08/10 07:54:25;;;;;;;2.67;1.53;;;17.50;69.90;;;;;;6199943;23;20149;-70
2023/08/10 07:56:51;;;;;;;3.37;1.30;;;17.60;68.10;;;;;;6175599;23;20409;-71
2023/08/10 07:59:16;;;;;;;4.33;2.40;;;17.70;67.20;;;;;;6174506;23;20408;-70
2023/08/10 08:01:43;;;;;;;2.10;1.63;;;17.70;64.10;;;;;;6150224;23;20213;-70
2023/08/10 08:04:08;;;;;;;1.90;1.30;;;17.70;64.50;;;;;;6199656;23;20601;-70
2023/08/10 08:06:36;;;;;;;2.27;1.70;;;17.80;64.20;;;;;;6198908;23;20360;-70
2023/08/10 08:09:04;;;;;;;2.80;1.40;;;17.90;63.50;;;;;;6171278;23;20143;-69
2023/08/10 08:11:30;;;;;;;2.40;1.93;;;17.90;62.80;;;;;;6197118;23;20809;-70
2023/08/10 08:13:56;;;;;;;2.00;1.70;;;18.00;62.20;;;;;;6176697;23;20400;-69
2023/08/10 08:16:21;;;;;;;3.10;1.97;;;18.10;61.70;;;;;;6171323;23;20414;-68
2023/08/10 08:18:49;;;;;;;2.97;1.20;;;18.20;60.70;;;;;;6200236;23;20136;-71
2023/08/10 08:21:23;;;;;;;5.17;1.93;;;18.30;60.60;;;;;;6202047;23;20161;-70
2023/08/10 08:23:50;;;;;;;3.93;1.87;;;18.30;59.20;;;;;;6200867;23;20366;-68
2023/08/10 08:26:17;;;;;;;4.57;2.43;;;18.40;59.00;;;;;;6199306;23;20365;-70
2023/08/10 08:28:43;;;;;;;3.13;1.63;;;18.40;58.50;;;;;;6201652;23;20361;-70
2023/08/10 08:31:09;;;;;;;4.43;1.60;;;18.40;58.30;;;;;;6177812;23;20436;-70
2023/08/10 08:33:35;;;;;;;4.93;1.93;;;18.40;57.70;;;;;;6173977;23;20372;-69
2023/08/10 08:36:01;;;;;;;3.40;1.60;;;18.50;57.60;;;;;;6199023;23;20146;-70
2023/08/10 08:38:29;;;;;;;3.70;1.97;;;18.50;57.70;;;;;;6175240;23;20413;-69
2023/08/10 08:40:55;;;;;;;3.17;2.23;;;18.50;58.20;;;;;;6174635;23;20385;-71
2023/08/10 08:43:21;;;;;;;2.73;1.83;;;18.60;58.40;;;;;;6174838;23;20438;-69
2023/08/10 08:45:48;;;;;;;2.80;1.63;;;18.70;58.40;;;;;;6175078;23;20397;-70
2023/08/10 08:48:15;;;;;;;4.87;2.80;;;18.80;58.20;;;;;;6201431;23;20362;-70
2023/08/10 08:50:41;;;;;;;4.00;1.70;;;18.90;56.90;;;;;;6175014;23;20698;-68
2023/08/10 08:53:08;;;;;;;2.90;1.30;;;19.00;57.00;;;;;;6204190;23;20384;-70
2023/08/10 08:55:34;;;;;;;3.53;1.60;;;19.00;56.80;;;;;;6177264;23;20378;-70
2023/08/10 08:58:00;;;;;;;1.80;1.50;;;19.10;56.60;;;;;;6203159;23;20478;-69
2023/08/10 09:00:26;;;;;;;3.60;1.40;;;19.20;56.60;;;;;;6177241;23;20403;-69
2023/08/10 09:02:52;;;;;;;3.80;1.70;;;19.30;56.10;;;;;;6205234;23;20364;-69
2023/08/10 09:05:18;;;;;;;2.33;1.27;;;19.40;56.00;;;;;;6205792;23;20178;-69
2023/08/10 09:07:45;;;;;;;2.07;1.13;;;19.40;55.40;;;;;;6202833;23;20370;-71
2023/08/10 09:10:10;;;;;;;3.33;1.50;;;19.40;55.20;;;;;;6175914;23;20830;-72
2023/08/10 09:12:37;;;;;;;2.30;1.67;;;19.50;54.10;;;;;;6176313;23;20435;-70
2023/08/10 09:15:09;;;;;;;2.40;1.60;;;19.50;54.50;;;;;;6175920;23;20551;-71
2023/08/10 09:17:46;;;;;;;8.83;1.90;;;19.60;53.50;;;;;;6203352;23;20433;-70
2023/08/10 09:20:20;;;;;;;6.40;2.33;;;19.70;53.10;;;;;;6205568;23;20393;-70
2023/08/10 09:22:47;;;;;;;2.83;1.60;;;19.70;52.40;;;;;;6175312;23;20381;-68
2023/08/10 09:25:13;;;;;;;3.23;1.80;;;19.70;52.50;;;;;;6201759;23;20485;-70
2023/08/10 09:27:40;;;;;;;4.13;2.33;;;19.70;52.40;;;;;;6200817;23;20429;-69
2023/08/10 09:30:07;;;;;;;4.47;2.40;;;19.60;52.20;;;;;;6176669;23;20181;-71
2023/08/10 09:32:34;;;;;;;4.10;2.00;;;19.60;52.00;;;;;;6205575;23;20366;-71
2023/08/10 09:34:59;;;;;;;2.47;2.20;;;19.60;51.50;;;;;;6205453;23;20370;-72
2023/08/10 09:37:26;;;;;;;2.60;1.70;;;19.60;51.40;;;;;;6178947;23;20407;-71
2023/08/10 09:40:04;;;;;;;5.87;1.70;;;19.70;51.90;;;;;;6155895;23;20198;-69
2023/08/10 09:42:34;;;;;;;2.33;1.20;;;19.80;50.90;;;;;;6205495;23;20354;-72
2023/08/10 09:45:20;;;;;;;3.50;1.70;;;19.90;50.80;;;;;;6129509;23;20394;-69
2023/08/10 09:47:46;;;;;;;2.00;1.23;;;19.90;50.40;;;;;;6206932;23;20374;-70
2023/08/10 09:50:16;;;;;;;3.07;1.50;;;20.00;50.70;;;;;;6206508;23;20385;-72
2023/08/10 09:52:44;;;;;;;3.63;2.00;;;20.10;50.90;;;;;;6158863;23;20130;-72
2023/08/10 09:55:10;;;;;;;2.30;1.80;;;20.20;49.80;;;;;;6183262;23;20358;-72
2023/08/10 09:57:40;;;;;;;2.37;1.63;;;20.30;49.80;;;;;;6208162;23;20477;-70
2023/08/10 10:00:13;;;;;;;3.73;2.07;;;20.40;49.70;;;;;;6156980;23;20436;-72
2023/08/10 10:02:40;;;;;;;2.20;1.53;;;20.40;50.10;;;;;;6181813;23;20377;-74
2023/08/10 10:05:08;;;;;;;2.70;1.53;;;20.40;50.50;;;;;;6184127;23;20481;-71
2023/08/10 10:07:34;;;;;;;3.03;1.47;;;20.40;50.60;;;;;;6158425;23;20393;-72
2023/08/10 10:10:01;;;;;;;2.87;1.50;;;20.40;50.90;;;;;;6180753;23;20428;-73
2023/08/10 10:12:33;;;;;;;4.20;3.60;;;20.50;51.00;;;;;;6176588;23;20354;-71
2023/08/10 10:14:59;;;;;;;5.43;3.20;;;20.50;50.90;;;;;;6151998;23;20448;-70
2023/08/10 10:17:25;;;;;;;7.87;4.33;;;20.50;50.80;;;;;;6179478;23;20398;-72
2023/08/10 10:19:52;;;;;;;6.30;4.23;;;20.60;51.00;;;;;;6130860;23;20445;-72
2023/08/10 10:22:20;;;;;;;6.33;4.10;;;20.60;51.00;;;;;;6183431;23;20146;-71
2023/08/10 10:24:47;;;;;;;5.90;3.73;;;20.70;51.10;;;;;;6156226;23;20416;-72
2023/08/10 10:27:13;;;;;;;4.83;3.57;;;20.70;51.30;;;;;;6180151;23;20345;-71
2023/08/10 10:30:01;;;;;;;5.73;4.20;;;20.80;51.50;;;;;;6156930;23;20421;-71
2023/08/10 10:32:58;;;;;;;7.10;4.07;;;20.80;51.60;;;;;;6181470;23;20390;-71
2023/08/10 10:35:31;;;;;;;5.07;3.37;;;20.90;51.40;;;;;;6155416;23;20380;-73
2023/08/10 10:37:58;;;;;;;6.10;4.27;;;20.90;51.40;;;;;;6178855;23;20420;-72
2023/08/10 10:40:27;;;;;;;7.93;5.60;;;20.90;51.40;;;;;;6205419;23;20663;-71
2023/08/10 10:43:07;;;;;;;4.50;3.40;;;20.90;51.40;;;;;;6158872;23;20354;-72
2023/08/10 10:45:40;;;;;;;7.60;3.60;;;20.90;51.30;;;;;;6183879;23;20484;-72
2023/08/10 10:48:06;;;;;;;5.20;3.40;;;20.90;51.60;;;;;;6207892;23;20358;-73
2023/08/10 10:50:33;;;;;;;7.97;3.60;;;20.90;52.20;;;;;;6181552;23;20394;-71
2023/08/10 10:53:13;;;;;;;3.17;2.40;;;20.90;51.90;;;;;;6158450;23;20146;-71
2023/08/10 10:55:44;;;;;;;5.10;3.33;;;20.90;52.00;;;;;;6158201;23;20358;-73
2023/08/10 10:58:15;;;;;;;5.97;3.47;;;21.10;52.20;;;;;;6185952;23;20429;-72
2023/08/10 11:00:43;;;;;;;7.27;3.63;;;21.10;51.70;;;;;;6206796;23;20393;-71
2023/08/10 11:03:13;;;;;;;5.77;4.30;;;21.20;52.00;;;;;;6158182;23;20364;-71
2023/08/10 11:05:39;;;;;;;9.80;4.33;;;21.30;52.00;;;;;;6183255;23;20426;-73
2023/08/10 11:08:06;;;;;;;7.33;4.10;;;21.30;52.20;;;;;;6159590;23;20485;-71
2023/08/10 11:10:35;;;;;;;9.73;5.37;;;21.40;52.40;;;;;;6183593;23;20170;-73
2023/08/10 11:13:11;;;;;;;8.30;5.07;;;21.30;52.60;;;;;;6156311;23;20390;-69
2023/08/10 11:15:37;;;;;;;6.73;4.43;;;21.30;52.80;;;;;;6157438;23;20468;-72
2023/08/10 11:18:11;;;;;;;7.93;4.43;;;21.40;52.70;;;;;;6181297;23;20420;-71
2023/08/10 11:20:42;;;;;;;4.90;3.90;;;21.50;52.70;;;;;;6203935;23;20436;-73
2023/08/10 11:23:08;;;;;;;5.60;4.33;;;21.50;52.70;;;;;;6207583;23;20345;-72
2023/08/10 11:25:34;;;;;;;6.33;4.10;;;21.60;52.70;;;;;;6182036;23;20370;-72
2023/08/10 11:28:00;;;;;;;7.63;3.50;;;21.60;52.90;;;;;;6159193;23;20146;-73
2023/08/10 11:30:26;;;;;;;9.90;4.30;;;21.60;52.80;;;;;;6184070;23;20408;-73
2023/08/10 11:32:54;;;;;;;4.90;3.70;;;21.70;52.60;;;;;;6182579;23;20201;-72
2023/08/10 11:35:24;;;;;;;5.90;3.90;;;21.70;52.30;;;;;;6183417;23;20146;-73
2023/08/10 11:37:51;;;;;;;5.17;3.90;;;21.70;52.40;;;;;;6163294;23;20440;-73
2023/08/10 11:40:22;;;;;;;5.33;3.30;;;21.70;52.50;;;;;;6158631;23;20382;-73
2023/08/10 11:43:12;;;;;;;6.27;3.00;;;21.70;52.60;;;;;;6182239;23;20364;-73
2023/08/10 11:45:43;;;;;;;5.20;3.40;;;21.70;52.90;;;;;;6208631;23;20390;-72
2023/08/10 11:48:15;;;;;;;8.03;3.90;;;21.70;52.90;;;;;;6206245;23;20659;-72
2023/08/10 11:50:43;;;;;;;5.20;3.87;;;21.80;52.90;;;;;;6208200;23;20414;-72
2023/08/10 11:53:20;;;;;;;5.53;3.50;;;21.90;52.70;;;;;;6204999;23;20405;-72
2023/08/10 11:55:51;;;;;;;5.10;3.23;;;21.80;52.70;;;;;;6180104;23;20453;-71
2023/08/10 11:58:19;;;;;;;4.77;2.70;;;21.70;52.70;;;;;;6155517;23;20405;-72
2023/08/10 12:00:53;;;;;;;5.10;3.20;;;21.80;52.90;;;;;;6179288;23;20424;-73
2023/08/10 12:03:30;;;;;;;5.67;2.73;;;21.80;52.30;;;;;;6180180;23;20374;-72
2023/08/10 12:06:04;;;;;;;4.57;2.70;;;21.90;51.00;;;;;;6203156;23;20432;-72
2023/08/10 12:08:32;;;;;;;4.50;3.00;;;22.00;50.90;;;;;;6129380;23;20432;-71
2023/08/10 12:11:12;;;;;;;5.50;2.53;;;22.10;51.10;;;;;;6205199;23;20394;-71
2023/08/10 12:13:49;;;;;;;5.30;2.77;;;22.30;51.00;;;;;;6179125;23;20373;-72
2023/08/10 12:16:20;;;;;;;4.47;3.37;;;22.40;50.70;;;;;;6178018;23;20366;-70
2023/08/10 12:18:47;;;;;;;5.67;4.00;;;22.50;50.90;;;;;;6155097;23;20485;-71
2023/08/10 12:21:14;;;;;;;4.57;2.87;;;22.50;50.60;;;;;;6158034;23;20406;-72
2023/08/10 12:23:40;;;;;;;3.63;3.03;;;22.40;50.80;;;;;;6111629;23;20386;-72
2023/08/10 12:26:05;;;;;;;5.73;3.10;;;22.50;50.70;;;;;;6211852;23;20412;-73
2023/08/10 12:28:33;;;;;;;6.40;3.70;;;22.50;50.50;;;;;;6184399;23;20151;-71
2023/08/10 12:31:11;;;;;;;4.27;2.97;;;22.60;50.50;;;;;;6158946;23;20396;-72
2023/08/10 12:33:39;;;;;;;5.53;3.33;;;22.70;50.30;;;;;;6183273;23;20395;-73
2023/08/10 12:36:07;;;;;;;8.67;4.07;;;22.70;49.60;;;;;;6184040;23;20145;-72
2023/08/10 12:38:33;;;;;;;5.60;3.83;;;22.80;49.60;;;;;;6159185;23;20394;-71
2023/08/10 12:40:59;;;;;;;3.40;2.90;;;22.70;49.30;;;;;;6158847;23;20386;-73
2023/08/10 12:43:29;;;;;;;6.03;3.13;;;22.70;49.90;;;;;;6208912;23;20127;-73
2023/08/10 12:45:54;;;;;;;3.70;2.60;;;22.80;49.90;;;;;;6157329;23;20185;-72
2023/08/10 12:48:20;;;;;;;5.07;3.33;;;22.80;49.70;;;;;;6180749;23;20370;-73